createdAt,value
2018-12-04T00:00:48.888Z,99051.80
2018-12-04T00:06:06.381Z,99080.59
2018-12-04T00:11:23.884Z,99094.46
2018-12-04T00:16:41.348Z,99132.13
2018-12-04T00:21:58.968Z,99146.87
2018-12-04T00:27:16.452Z,99158.89
2018-12-04T00:32:33.943Z,99173.77
2018-12-04T00:37:51.414Z,99195.83
2018-12-04T00:43:08.870Z,99208.82
2018-12-04T00:48:26.338Z,99229.37
2018-12-04T00:53:44.101Z,99249.69
2018-12-04T00:59:02.295Z,99266.86
2018-12-04T01:04:19.772Z,99277.61
2018-12-04T01:09:37.230Z,99295.78
2018-12-04T01:14:54.854Z,99319.65
2018-12-04T01:20:12.320Z,99332.23
2018-12-04T01:25:29.787Z,99350.41
2018-12-04T01:30:47.331Z,99365.41
2018-12-04T01:36:04.887Z,99380.47
2018-12-04T01:41:22.335Z,99381.69
2018-12-04T01:46:39.852Z,99388.53
2018-12-04T01:51:57.366Z,99391.36
2018-12-04T01:57:15.209Z,99402.00
2018-12-04T02:02:32.679Z,99413.03
2018-12-04T02:07:50.157Z,99430.20
2018-12-04T02:13:07.617Z,99439.88
2018-12-04T02:18:25.095Z,99444.44
2018-12-04T02:23:42.569Z,99456.42
2018-12-04T02:29:00.065Z,99477.73
2018-12-04T02:34:17.537Z,99493.80
2018-12-04T02:39:35.028Z,99506.07
2018-12-04T02:44:52.534Z,99509.64
2018-12-04T02:50:10.002Z,99507.06
2018-12-04T02:55:27.482Z,99515.48
2018-12-04T03:00:44.954Z,99525.88
2018-12-04T03:06:02.417Z,99534.48
2018-12-04T03:11:19.943Z,99546.19
2018-12-04T03:16:38.078Z,99550.82
2018-12-04T03:21:55.542Z,99560.64
2018-12-04T03:27:12.999Z,99575.17
2018-12-04T03:32:30.485Z,99590.25
2018-12-04T03:37:48.111Z,99593.12
2018-12-04T03:43:05.611Z,99599.06
2018-12-04T03:48:23.240Z,99602.47
2018-12-04T03:53:40.704Z,99614.14
2018-12-04T03:58:59.092Z,99625.09
2018-12-04T04:04:16.570Z,99633.83
2018-12-04T04:09:34.034Z,99648.28
2018-12-04T04:14:51.531Z,99655.01
2018-12-04T04:20:09.026Z,99659.02
2018-12-04T04:25:26.497Z,99662.53
2018-12-04T04:30:43.984Z,99668.17
2018-12-04T04:36:01.457Z,99679.20
2018-12-04T04:41:18.936Z,99703.19
2018-12-04T04:46:36.415Z,99722.48
2018-12-04T04:51:53.890Z,99731.52
2018-12-04T04:57:11.366Z,99738.27
2018-12-04T05:02:28.853Z,99742.27
2018-12-04T05:07:46.467Z,99755.82
2018-12-04T05:13:04.009Z,99762.33
2018-12-04T05:18:21.507Z,99763.45
2018-12-04T05:23:38.970Z,99788.33
2018-12-04T05:28:56.455Z,99802.41
2018-12-04T05:34:13.927Z,99813.39
2018-12-04T05:39:31.557Z,99825.42
2018-12-04T05:44:50.281Z,99837.78
2018-12-04T05:50:08.015Z,99842.72
2018-12-04T05:55:25.554Z,99844.80
2018-12-04T06:00:43.027Z,99852.25
2018-12-04T06:06:00.518Z,99864.80
2018-12-04T06:11:17.986Z,99871.59
2018-12-04T06:16:35.469Z,99884.47
2018-12-04T06:21:52.945Z,99889.71
2018-12-04T06:27:10.765Z,99917.45
2018-12-04T06:32:28.270Z,99934.91
2018-12-04T06:37:45.753Z,99941.88
2018-12-04T06:43:04.808Z,99958.38
2018-12-04T06:48:22.289Z,99974.98
2018-12-04T06:53:40.583Z,99981.44
2018-12-04T06:58:58.072Z,99994.61
2018-12-04T07:04:15.664Z,100012.06
2018-12-04T07:09:33.172Z,100025.72
2018-12-04T07:14:50.670Z,100035.92
2018-12-04T07:20:08.321Z,100061.34
2018-12-04T07:25:25.884Z,100072.38
2018-12-04T07:30:43.359Z,100090.69
2018-12-04T07:36:00.850Z,100086.59
2018-12-04T07:41:18.362Z,100099.77
2018-12-04T07:46:35.846Z,100107.34
2018-12-04T07:51:53.330Z,100117.81
2018-12-04T07:57:10.810Z,100131.33
2018-12-04T08:02:28.290Z,100144.84
2018-12-04T08:07:45.765Z,100157.69
2018-12-04T08:13:03.269Z,100168.22
2018-12-04T08:18:20.737Z,100184.67
2018-12-04T08:23:38.243Z,100194.41
2018-12-04T08:28:55.769Z,100197.38
2018-12-04T08:34:13.232Z,100202.17
2018-12-04T08:39:30.727Z,100216.86
2018-12-04T08:44:48.219Z,100225.59
2018-12-04T08:50:06.173Z,100231.36
2018-12-04T08:55:23.705Z,100247.02
2018-12-04T09:00:41.165Z,100261.52
2018-12-04T09:05:58.652Z,100268.41
2018-12-04T09:11:16.128Z,100273.53
2018-12-04T09:16:33.616Z,100281.59
2018-12-04T09:21:51.155Z,100296.75
2018-12-04T09:27:08.753Z,100305.98
2018-12-04T09:32:26.394Z,100317.51
2018-12-04T09:37:43.881Z,100342.41
2018-12-04T09:43:04.178Z,100361.52
2018-12-04T09:48:20.881Z,100364.47
2018-12-04T09:53:38.875Z,100372.23
2018-12-04T09:58:56.366Z,100391.50
2018-12-04T10:04:13.836Z,100402.23
2018-12-04T10:09:31.309Z,100407.84
2018-12-04T10:14:49.112Z,100406.69
2018-12-04T10:20:08.924Z,100415.58
2018-12-04T10:25:26.401Z,100419.86
2018-12-04T10:30:45.870Z,100420.36
2018-12-04T10:36:03.481Z,100428.77
2018-12-04T10:41:20.976Z,100426.60
2018-12-04T10:46:38.470Z,100426.94
2018-12-04T10:51:55.964Z,100431.88
2018-12-04T10:57:13.436Z,100443.07
2018-12-04T11:02:32.894Z,100452.59
2018-12-04T11:07:50.408Z,100452.63
2018-12-04T11:13:07.898Z,100458.92
2018-12-04T11:18:25.375Z,100460.72
2018-12-04T11:23:42.931Z,100463.33
2018-12-04T11:29:00.411Z,100474.89
2018-12-04T11:34:18.006Z,100483.92
2018-12-04T11:39:35.497Z,100487.52
2018-12-04T11:44:52.975Z,100501.13
2018-12-04T11:50:10.558Z,100513.36
2018-12-04T11:55:28.023Z,100514.03
2018-12-04T12:00:45.602Z,100516.18
2018-12-04T12:06:03.169Z,100522.13
2018-12-04T12:11:20.633Z,100520.47
2018-12-04T12:16:38.110Z,100521.30
2018-12-04T12:21:55.590Z,100525.44
2018-12-04T12:27:13.060Z,100529.70
2018-12-04T12:32:30.534Z,100544.06
2018-12-04T12:37:48.014Z,100543.09
2018-12-04T12:43:05.495Z,100542.77
2018-12-04T12:48:22.964Z,100552.66
2018-12-04T12:53:40.473Z,100554.14
2018-12-04T12:58:57.953Z,100555.95
2018-12-04T13:04:15.424Z,100563.55
2018-12-04T13:09:32.902Z,100570.30
2018-12-04T13:14:50.397Z,100571.77
2018-12-04T13:20:08.067Z,100578.67
2018-12-04T13:25:25.551Z,100580.97
2018-12-04T13:30:43.174Z,100596.30
2018-12-04T13:36:00.676Z,100597.73
2018-12-04T13:41:18.151Z,100611.86
2018-12-04T13:46:35.627Z,100619.78
2018-12-04T13:51:53.115Z,100620.58
2018-12-04T13:57:10.613Z,100634.48
2018-12-04T14:02:28.083Z,100638.66
2018-12-04T14:07:46.006Z,100647.41
2018-12-04T14:13:04.048Z,100659.46
2018-12-04T14:18:21.891Z,100666.38
2018-12-04T14:23:39.516Z,100675.11
2018-12-04T14:28:57.066Z,100684.68
2018-12-04T14:34:14.569Z,100682.84
2018-12-04T14:39:32.425Z,100693.23
2018-12-04T14:44:49.915Z,100697.49
2018-12-04T14:50:08.373Z,100700.94
2018-12-04T14:55:26.026Z,100711.36
2018-12-04T15:00:43.591Z,100719.52
2018-12-04T15:06:01.071Z,100732.17
2018-12-04T15:11:18.529Z,100737.31
2018-12-04T15:16:36.106Z,100739.38
2018-12-04T15:21:54.554Z,100746.01
2018-12-04T15:27:12.149Z,100763.86
2018-12-04T15:32:29.882Z,100765.38
2018-12-04T15:37:47.386Z,100775.54
2018-12-04T15:43:05.686Z,100775.98
2018-12-04T15:48:23.244Z,100791.70
2018-12-04T15:53:40.916Z,100798.19
2018-12-04T15:58:59.418Z,100795.31
2018-12-04T16:04:16.957Z,100796.16
2018-12-04T16:09:35.201Z,100803.92
2018-12-04T16:14:52.751Z,100808.03
2018-12-04T16:20:10.212Z,100811.31
2018-12-04T16:25:27.687Z,100812.86
2018-12-04T16:30:45.238Z,100817.50
2018-12-04T16:36:03.729Z,100833.65
2018-12-04T16:41:21.238Z,100831.09
2018-12-04T16:46:38.760Z,100840.22
2018-12-04T16:51:56.370Z,100845.97
2018-12-04T16:57:13.933Z,100845.50
2018-12-04T17:02:31.420Z,100839.61
2018-12-04T17:07:48.897Z,100842.23
2018-12-04T17:13:06.374Z,100831.50
2018-12-04T17:18:23.894Z,100842.71
2018-12-04T17:23:41.352Z,100855.33
2018-12-04T17:28:58.827Z,100858.62
2018-12-04T17:34:16.362Z,100858.22
2018-12-04T17:39:33.905Z,100873.58
2018-12-04T17:44:51.406Z,100866.45
2018-12-04T17:50:08.969Z,100883.88
2018-12-04T17:55:26.453Z,100884.55
2018-12-04T18:00:43.931Z,100886.41
2018-12-04T18:06:01.436Z,100886.22
2018-12-04T18:11:18.915Z,100884.88
2018-12-04T18:22:01.429Z,100900.20
2018-12-04T18:27:18.902Z,100898.39
2018-12-04T18:32:36.391Z,100894.77
2018-12-04T18:37:53.870Z,100909.84
2018-12-04T18:43:11.433Z,100911.48
2018-12-04T18:48:28.985Z,100930.19
2018-12-04T18:53:46.479Z,100934.86
2018-12-04T18:59:03.954Z,100932.49
2018-12-04T19:04:21.433Z,100940.83
2018-12-04T19:09:39.007Z,100937.77
2018-12-04T19:14:56.493Z,100945.59
2018-12-04T19:20:14.081Z,100948.63
2018-12-04T19:25:31.605Z,100953.86
2018-12-04T19:30:49.093Z,100947.45
2018-12-04T19:36:06.592Z,100950.83
2018-12-04T19:41:24.121Z,100951.08
2018-12-04T19:46:41.666Z,100955.02
2018-12-04T19:51:59.207Z,100963.95
2018-12-04T19:57:16.726Z,100974.54
2018-12-04T20:02:34.290Z,100984.27
2018-12-04T20:07:51.829Z,100982.54
2018-12-04T20:13:09.306Z,100985.50
2018-12-04T20:18:26.799Z,100989.34
2018-12-04T20:23:44.359Z,100988.84
2018-12-04T20:29:01.941Z,100994.59
2018-12-04T20:34:19.449Z,101003.48
2018-12-04T20:39:36.955Z,101017.80
2018-12-04T20:44:54.432Z,101013.86
2018-12-04T20:50:11.991Z,101028.12
2018-12-04T20:55:29.471Z,101030.65
2018-12-04T21:00:47.318Z,101022.91
2018-12-04T21:06:05.661Z,101022.30
2018-12-04T21:11:23.145Z,101027.55
2018-12-04T21:16:40.637Z,101030.52
2018-12-04T21:21:58.181Z,101027.53
2018-12-04T21:27:21.220Z,101033.70
2018-12-04T21:32:44.558Z,101034.64
2018-12-04T21:38:07.622Z,101019.31
2018-12-04T21:43:30.786Z,101017.88
2018-12-04T21:48:48.277Z,101015.63
2018-12-04T21:54:05.779Z,101026.80
2018-12-04T21:59:23.290Z,101019.79
2018-12-04T22:04:40.802Z,101033.67
2018-12-04T22:09:58.262Z,101031.06
2018-12-04T22:15:15.861Z,101029.65
2018-12-04T22:20:33.776Z,101027.64
2018-12-04T22:25:51.281Z,101024.53
2018-12-04T22:31:08.774Z,101026.20
2018-12-04T22:36:26.729Z,101035.02
2018-12-04T22:41:44.203Z,101040.73
2018-12-04T22:47:01.753Z,101044.06
2018-12-04T22:52:19.248Z,101040.84
2018-12-04T22:57:36.730Z,101037.63
2018-12-04T23:02:54.213Z,101040.60
2018-12-04T23:08:11.698Z,101038.45
2018-12-04T23:13:29.189Z,101019.55
2018-12-04T23:18:46.663Z,101025.48
2018-12-04T23:24:04.223Z,101027.39
2018-12-04T23:29:21.686Z,101038.09
2018-12-04T23:34:39.156Z,101035.98
2018-12-04T23:39:56.907Z,101032.89
2018-12-04T23:45:14.386Z,101029.44
2018-12-04T23:50:31.865Z,101015.63
2018-12-04T23:55:49.337Z,101012.91
